Kezdőlap
METAR-TAF:

METAR-TAF

Repülőterek :

Katima Mulilo, Namíbia

földrajzi szélesség: 17-38-04S, földrajzi hosszúság: 024-10-36E, magasság: 985 m

Jelenlegi meteorológiai megfigyelések

A jelentés 1 órával és 5 perccel ezelõtt készült, 23:00 UTC
Északkeleti szél 2 kt
Hőmérséklet 12°C
Páratartalom 44%
Légköri nyomás 1021 hPa

METAR: FYKM 192300Z AUTO 04002KT //// // ////// 12/M00 Q1021

Idő: 02:05 (00:05 UTC)

Előrejelzés

A jelentés 7 órával és 5 perccel ezelõtt készült, 17:00 UTC
Az előrejelzés 19-én 18 óra UTC és 20-én 03 óra UTC között érvényes
Kelet-délkeleti szél 6 kt
Látótávolság 10 km, vagy több
felhőtlen 1500 m magasságban, és nincs gomolyfelhõ

TAF: FYKM 191700Z 1918/2003 12006KT CAVOK

Meteorológiai megfigyelések és előrejelzések több, mint 4000 repülőtéren (METAR és TAF jelentéseket).

A térképen piros és sárga pontok jelzik az elérhető meteorológiai állomásokat.

Mozgassa az egeret a pont fölött, hogy megjelenjen az állomás neve.

Azután kattintson az időjárási megfigyelések és előrejelzések megtekintéséhez.

A térkép megváltoztatása: kattintson a fekete keresztel jelölt zöld gombra ráközelítéshez, a vonallal jelölt zöld gombra távolításhoz, vagy a zöld nyilakra a szomszédos térképek eléréséhez.


METAR-TAF: